createdAt,value
2023-04-30T00:00:35.819Z,99520.75
2023-04-30T00:03:04.330Z,99519.81
2023-04-30T00:05:32.818Z,99532.41
2023-04-30T00:08:02.077Z,99526.53
2023-04-30T00:10:29.996Z,99528.97
2023-04-30T00:12:58.048Z,99526.41
2023-04-30T00:15:26.102Z,99534.75
2023-04-30T00:17:54.108Z,99530.56
2023-04-30T00:20:22.023Z,99529.72
2023-04-30T00:22:49.935Z,99527.22
2023-04-30T00:25:20.963Z,99527.06
2023-04-30T00:27:48.924Z,99525.38
2023-04-30T00:30:16.874Z,99527.00
2023-04-30T00:32:45.967Z,99526.13
2023-04-30T00:35:14.095Z,99537.88
2023-04-30T00:37:42.090Z,99532.81
2023-04-30T00:40:10.887Z,99530.94
2023-04-30T00:42:40.083Z,99525.66
2023-04-30T00:45:09.517Z,99525.56
2023-04-30T00:47:37.801Z,99534.72
2023-04-30T00:50:06.918Z,99531.28
2023-04-30T00:52:34.952Z,99534.66
2023-04-30T00:55:03.312Z,99530.50
2023-04-30T00:57:31.781Z,99538.09
2023-04-30T01:00:01.282Z,99528.75
2023-04-30T01:02:31.379Z,99528.56
2023-04-30T01:04:59.568Z,99538.22
2023-04-30T01:07:28.366Z,99536.09
2023-04-30T01:09:56.977Z,99535.03
2023-04-30T01:12:34.340Z,99539.31
2023-04-30T01:15:10.647Z,99537.84
2023-04-30T01:17:42.870Z,99539.78
2023-04-30T01:20:12.302Z,99545.78
2023-04-30T01:22:48.410Z,99535.94
2023-04-30T01:25:32.651Z,99537.69
2023-04-30T01:28:10.307Z,99532.63
2023-04-30T01:30:40.906Z,99521.72
2023-04-30T01:33:09.289Z,99530.97
2023-04-30T01:36:01.148Z,99539.31
2023-04-30T01:38:45.696Z,99540.97
2023-04-30T01:41:26.965Z,99547.63
2023-04-30T01:44:07.434Z,99555.03
2023-04-30T01:46:35.469Z,99556.63
2023-04-30T01:49:13.168Z,99560.81
2023-04-30T01:51:43.035Z,99552.47
2023-04-30T01:54:22.457Z,99556.56
2023-04-30T01:56:55.124Z,99563.22
2023-04-30T01:59:24.670Z,99551.56
2023-04-30T02:01:52.794Z,99552.41
2023-04-30T02:04:20.908Z,99549.69
2023-04-30T02:06:48.815Z,99552.22
2023-04-30T02:09:16.814Z,99555.56
2023-04-30T02:11:44.748Z,99550.06
2023-04-30T02:14:12.672Z,99554.75
2023-04-30T02:16:42.951Z,99553.66
2023-04-30T02:19:12.410Z,99558.56
2023-04-30T02:21:40.590Z,99566.75
2023-04-30T02:24:08.518Z,99554.25
2023-04-30T02:26:36.470Z,99557.72
2023-04-30T02:29:04.436Z,99548.69
2023-04-30T02:31:32.974Z,99558.91
2023-04-30T02:34:02.374Z,99558.94
2023-04-30T02:36:33.582Z,99555.63
2023-04-30T02:39:01.432Z,99558.22
2023-04-30T02:41:29.366Z,99564.16
2023-04-30T02:43:57.314Z,99564.97
2023-04-30T02:46:25.343Z,99563.25
2023-04-30T02:48:53.328Z,99568.28
2023-04-30T02:51:22.590Z,99573.38
2023-04-30T02:53:50.662Z,99573.38
2023-04-30T02:56:18.582Z,99566.66
2023-04-30T02:58:46.552Z,99567.47
2023-04-30T03:01:14.957Z,99575.94
2023-04-30T03:03:42.952Z,99579.16
2023-04-30T03:06:10.930Z,99577.41
2023-04-30T03:08:40.303Z,99580.59
2023-04-30T03:11:08.173Z,99585.56
2023-04-30T03:13:36.063Z,99587.34
2023-04-30T03:16:05.765Z,99584.09
2023-04-30T03:18:34.054Z,99588.34
2023-04-30T03:21:01.947Z,99589.03
2023-04-30T03:23:30.173Z,99582.88
2023-04-30T03:25:59.458Z,99585.25
2023-04-30T03:28:27.435Z,99589.34
2023-04-30T03:30:55.428Z,99596.06
2023-04-30T03:33:23.501Z,99593.00
2023-04-30T03:35:51.883Z,99597.50
2023-04-30T03:38:19.870Z,99595.13
2023-04-30T03:40:47.814Z,99605.16
2023-04-30T03:43:17.106Z,99606.06
2023-04-30T03:45:45.125Z,99610.25
2023-04-30T03:48:13.106Z,99621.88
2023-04-30T03:50:41.139Z,99624.34
2023-04-30T03:53:09.064Z,99621.06
2023-04-30T03:55:37.118Z,99628.81
2023-04-30T03:58:05.417Z,99621.50
2023-04-30T04:00:34.765Z,99621.81
2023-04-30T04:03:02.901Z,99636.16
2023-04-30T04:05:30.855Z,99632.06
2023-04-30T04:07:58.771Z,99641.28
2023-04-30T04:10:26.649Z,99644.50
2023-04-30T04:12:54.622Z,99649.44
2023-04-30T04:15:22.819Z,99647.00
2023-04-30T04:17:52.333Z,99658.00
2023-04-30T04:20:20.500Z,99658.91
2023-04-30T04:22:48.978Z,99660.63
2023-04-30T04:25:18.142Z,99669.97
2023-04-30T04:27:46.299Z,99671.72
2023-04-30T04:30:14.862Z,99670.97
2023-04-30T04:32:48.198Z,99670.25
2023-04-30T04:35:18.594Z,99672.91
2023-04-30T04:37:46.544Z,99680.44
2023-04-30T04:40:15.007Z,99687.09
2023-04-30T04:42:43.063Z,99687.06
2023-04-30T04:45:12.198Z,99702.97
2023-04-30T04:47:40.391Z,99697.94
2023-04-30T04:50:09.669Z,99704.81
2023-04-30T04:52:39.080Z,99699.78
2023-04-30T04:55:07.846Z,99699.88
2023-04-30T04:57:37.472Z,99693.09
2023-04-30T05:00:08.130Z,99709.97
2023-04-30T05:02:36.246Z,99708.28
2023-04-30T05:05:04.357Z,99699.97
2023-04-30T05:07:32.369Z,99709.25
2023-04-30T05:10:01.684Z,99711.81
2023-04-30T05:12:29.643Z,99705.84
2023-04-30T05:14:57.506Z,99714.84
2023-04-30T05:17:25.612Z,99709.63
2023-04-30T05:19:54.626Z,99708.69
2023-04-30T05:22:23.039Z,99707.72
2023-04-30T05:24:52.974Z,99715.16
2023-04-30T05:27:22.192Z,99710.72
2023-04-30T05:29:50.045Z,99725.72
2023-04-30T05:32:17.942Z,99710.66
2023-04-30T05:34:46.022Z,99728.25
2023-04-30T05:37:15.049Z,99729.94
2023-04-30T05:39:42.937Z,99727.75
2023-04-30T05:42:10.813Z,99724.44
2023-04-30T05:44:40.031Z,99734.44
2023-04-30T05:47:08.124Z,99743.72
2023-04-30T05:49:36.345Z,99737.94
2023-04-30T05:52:04.578Z,99749.00
2023-04-30T05:54:32.544Z,99750.44
2023-04-30T05:57:00.555Z,99752.78
2023-04-30T05:59:28.422Z,99746.00
2023-04-30T06:01:58.265Z,99740.97
2023-04-30T06:04:26.797Z,99749.28
2023-04-30T06:06:54.718Z,99754.28
2023-04-30T06:09:22.613Z,99745.97
2023-04-30T06:11:52.126Z,99753.47
2023-04-30T06:14:22.680Z,99744.22
2023-04-30T06:16:50.890Z,99762.63
2023-04-30T06:19:20.864Z,99779.31
2023-04-30T06:21:48.755Z,99756.69
2023-04-30T06:24:16.693Z,99765.84
2023-04-30T06:26:44.633Z,99757.53
2023-04-30T06:29:12.602Z,99744.25
2023-04-30T06:31:40.580Z,99766.09
2023-04-30T06:34:08.666Z,99752.75
2023-04-30T06:36:37.916Z,99759.56
2023-04-30T06:39:06.554Z,99772.88
2023-04-30T06:41:34.451Z,99779.53
2023-04-30T06:44:07.708Z,99762.69
2023-04-30T06:46:36.371Z,99778.44
2023-04-30T06:49:04.338Z,99774.97
2023-04-30T06:51:32.499Z,99769.91
2023-04-30T06:54:01.714Z,99785.81
2023-04-30T06:56:29.570Z,99785.94
2023-04-30T06:58:57.436Z,99782.69
2023-04-30T07:01:25.424Z,99800.31
2023-04-30T07:03:55.059Z,99794.72
2023-04-30T07:06:23.245Z,99801.53
2023-04-30T07:08:51.216Z,99798.19
2023-04-30T07:11:20.497Z,99800.88
2023-04-30T07:13:48.478Z,99802.56
2023-04-30T07:16:17.172Z,99794.94
2023-04-30T07:18:48.715Z,99796.63
2023-04-30T07:21:16.584Z,99799.38
2023-04-30T07:23:45.550Z,99809.47
2023-04-30T07:26:13.489Z,99796.84
2023-04-30T07:28:42.738Z,99807.03
2023-04-30T07:31:10.692Z,99803.66
2023-04-30T07:33:38.526Z,99816.22
2023-04-30T07:36:07.249Z,99817.34
2023-04-30T07:38:35.180Z,99818.34
2023-04-30T07:41:03.555Z,99815.78
2023-04-30T07:43:31.993Z,99822.56
2023-04-30T07:46:01.406Z,99825.97
2023-04-30T07:48:29.388Z,99819.88
2023-04-30T07:50:57.559Z,99816.50
2023-04-30T07:53:25.389Z,99818.00
2023-04-30T07:55:53.304Z,99831.38
2023-04-30T07:58:21.159Z,99818.72
2023-04-30T08:00:49.023Z,99837.22
2023-04-30T08:03:20.057Z,99837.16
2023-04-30T08:05:48.297Z,99832.03
2023-04-30T08:08:16.157Z,99845.66
2023-04-30T08:10:43.998Z,99859.94
2023-04-30T08:13:11.900Z,99854.03
2023-04-30T08:15:40.164Z,99845.66
2023-04-30T08:18:08.180Z,99849.84
2023-04-30T08:20:38.608Z,99846.50
2023-04-30T08:23:06.806Z,99840.75
2023-04-30T08:25:34.723Z,99844.28
2023-04-30T08:28:02.688Z,99849.28
2023-04-30T08:30:30.635Z,99839.06
2023-04-30T08:32:59.265Z,99851.81
2023-04-30T08:35:29.602Z,99847.63
2023-04-30T08:37:58.812Z,99846.88
2023-04-30T08:40:43.445Z,99846.16
2023-04-30T08:43:16.571Z,99843.00
2023-04-30T08:45:44.599Z,99835.66
2023-04-30T08:48:14.088Z,99857.66
2023-04-30T08:50:42.077Z,99846.13
2023-04-30T08:53:11.831Z,99844.75
2023-04-30T08:55:40.842Z,99836.69
2023-04-30T08:58:10.360Z,99845.16
2023-04-30T09:00:39.776Z,99843.38
2023-04-30T09:03:09.136Z,99845.78
2023-04-30T09:05:38.141Z,99845.84
2023-04-30T09:08:08.479Z,99853.44
2023-04-30T09:10:38.051Z,99849.28
2023-04-30T09:13:07.741Z,99846.84
2023-04-30T09:15:37.168Z,99847.13
2023-04-30T09:18:10.248Z,99838.19
2023-04-30T09:20:38.600Z,99836.53
2023-04-30T09:23:08.720Z,99837.19
2023-04-30T09:25:42.533Z,99836.28
2023-04-30T09:28:11.731Z,99826.13
2023-04-30T09:30:40.244Z,99831.28
2023-04-30T09:33:11.325Z,99818.13
2023-04-30T09:35:41.818Z,99830.00
2023-04-30T09:38:27.282Z,99825.91
2023-04-30T09:40:57.161Z,99836.06
2023-04-30T09:43:25.146Z,99829.41
2023-04-30T09:45:53.942Z,99820.00
2023-04-30T09:48:23.186Z,99835.22
2023-04-30T09:50:51.668Z,99818.47
2023-04-30T09:53:20.483Z,99803.56
2023-04-30T09:55:49.854Z,99817.19
2023-04-30T09:58:20.571Z,99816.41
2023-04-30T10:00:49.535Z,99826.53
2023-04-30T10:03:17.551Z,99818.94
2023-04-30T10:05:48.140Z,99818.22
2023-04-30T10:08:22.863Z,99810.72
2023-04-30T10:10:55.335Z,99820.88
2023-04-30T10:13:31.385Z,99814.19
2023-04-30T10:16:03.195Z,99805.75
2023-04-30T10:18:35.718Z,99800.72
2023-04-30T10:21:05.716Z,99794.03
2023-04-30T10:23:34.181Z,99798.28
2023-04-30T10:26:02.481Z,99800.09
2023-04-30T10:28:33.286Z,99814.31
2023-04-30T10:31:02.025Z,99809.28
2023-04-30T10:33:37.578Z,99799.97
2023-04-30T10:36:09.185Z,99812.72
2023-04-30T10:38:39.009Z,99802.63
2023-04-30T10:41:09.573Z,99791.69
2023-04-30T10:43:39.232Z,99795.13
2023-04-30T10:46:07.172Z,99801.03
2023-04-30T10:48:36.102Z,99800.22
2023-04-30T10:51:04.281Z,99795.19
2023-04-30T10:53:33.802Z,99785.94
2023-04-30T10:56:06.754Z,99805.25
2023-04-30T10:58:36.445Z,99795.94
2023-04-30T11:01:12.572Z,99806.00
2023-04-30T11:03:43.578Z,99800.13
2023-04-30T11:06:13.384Z,99804.34
2023-04-30T11:08:45.521Z,99797.63
2023-04-30T11:11:21.225Z,99801.00
2023-04-30T11:13:58.856Z,99806.94
2023-04-30T11:16:30.857Z,99795.97
2023-04-30T11:19:07.828Z,99791.69
2023-04-30T11:21:41.559Z,99800.81
2023-04-30T11:24:09.537Z,99808.19
2023-04-30T11:27:04.425Z,99809.78
2023-04-30T11:29:33.627Z,99807.34
2023-04-30T11:32:05.009Z,99803.13
2023-04-30T11:34:32.869Z,99797.97
2023-04-30T11:37:01.474Z,99799.59
2023-04-30T11:39:29.925Z,99810.56
2023-04-30T11:41:58.128Z,99811.44
2023-04-30T11:44:27.476Z,99795.44
2023-04-30T11:46:56.019Z,99800.50
2023-04-30T11:49:25.401Z,99806.34
2023-04-30T11:51:53.385Z,99817.31
2023-04-30T11:54:21.337Z,99814.00
2023-04-30T11:56:49.877Z,99802.28
2023-04-30T11:59:18.808Z,99799.84
2023-04-30T12:01:46.875Z,99806.50
2023-04-30T12:04:15.111Z,99819.91
2023-04-30T12:06:44.723Z,99815.66
2023-04-30T12:09:12.985Z,99812.34
2023-04-30T12:11:40.973Z,99800.53
2023-04-30T12:14:10.937Z,99826.66
2023-04-30T12:16:45.580Z,99804.81
2023-04-30T12:19:13.993Z,99797.28
2023-04-30T12:21:46.518Z,99820.00
2023-04-30T12:24:14.532Z,99796.47
2023-04-30T12:26:43.047Z,99786.41
2023-04-30T12:29:15.094Z,99793.19
2023-04-30T12:31:44.298Z,99786.50
2023-04-30T12:34:14.749Z,99792.44
2023-04-30T12:36:44.122Z,99795.78
2023-04-30T12:39:13.104Z,99790.75
2023-04-30T12:41:42.607Z,99768.91
2023-04-30T12:44:21.643Z,99782.44
2023-04-30T12:46:50.852Z,99777.41
2023-04-30T12:49:26.404Z,99779.91
2023-04-30T12:52:01.355Z,99763.94
2023-04-30T12:54:30.300Z,99768.22
2023-04-30T12:57:03.467Z,99766.53
2023-04-30T12:59:32.454Z,99774.13
2023-04-30T13:02:08.537Z,99772.47
2023-04-30T13:04:37.153Z,99781.75
2023-04-30T13:07:06.548Z,99769.09
2023-04-30T13:09:35.154Z,99772.47
2023-04-30T13:12:03.182Z,99779.19
2023-04-30T13:14:31.993Z,99775.81
2023-04-30T13:17:00.378Z,99779.22
2023-04-30T13:19:29.302Z,99776.69
2023-04-30T13:21:58.530Z,99764.88
2023-04-30T13:24:27.845Z,99768.25
2023-04-30T13:26:57.782Z,99754.78
2023-04-30T13:29:26.219Z,99763.22
2023-04-30T13:31:54.185Z,99769.16
2023-04-30T13:34:22.582Z,99760.69
2023-04-30T13:36:52.050Z,99755.63
2023-04-30T13:39:21.873Z,99766.59
2023-04-30T13:41:51.262Z,99749.72
2023-04-30T13:44:19.137Z,99752.22
2023-04-30T13:46:47.105Z,99769.09
2023-04-30T13:49:15.137Z,99755.56
2023-04-30T13:51:43.140Z,99757.28
2023-04-30T13:54:11.015Z,99775.84
2023-04-30T13:56:39.106Z,99755.59
2023-04-30T13:59:08.448Z,99771.63
2023-04-30T14:01:36.523Z,99763.19
2023-04-30T14:04:04.777Z,99750.50
2023-04-30T14:06:33.045Z,99753.84
2023-04-30T14:09:01.058Z,99736.97
2023-04-30T14:11:28.995Z,99758.03
2023-04-30T14:13:57.211Z,99745.34
2023-04-30T14:16:27.298Z,99752.88
2023-04-30T14:18:55.374Z,99743.59
2023-04-30T14:21:23.201Z,99743.63
2023-04-30T14:23:52.142Z,99750.28
2023-04-30T14:26:20.057Z,99747.66
2023-04-30T14:28:47.986Z,99734.22
2023-04-30T14:31:15.906Z,99726.59
2023-04-30T14:33:45.575Z,99733.34
2023-04-30T14:36:13.845Z,99729.91
2023-04-30T14:38:41.880Z,99741.56
2023-04-30T14:41:09.850Z,99740.84
2023-04-30T14:43:37.728Z,99726.47
2023-04-30T14:46:06.142Z,99724.69
2023-04-30T14:48:34.534Z,99736.38
2023-04-30T14:51:03.793Z,99716.91
2023-04-30T14:53:31.825Z,99717.81
2023-04-30T14:55:59.741Z,99724.56
2023-04-30T14:58:27.619Z,99721.13
2023-04-30T15:00:55.702Z,99729.66
2023-04-30T15:03:23.658Z,99716.09
2023-04-30T15:05:51.734Z,99714.25
2023-04-30T15:08:21.036Z,99714.13
2023-04-30T15:10:49.053Z,99719.19
2023-04-30T15:13:17.024Z,99720.91
2023-04-30T15:15:47.025Z,99717.47
2023-04-30T15:18:15.662Z,99711.53
2023-04-30T15:20:43.588Z,99722.50
2023-04-30T15:23:12.566Z,99720.56
2023-04-30T15:25:43.010Z,99715.53
2023-04-30T15:28:11.227Z,99704.56
2023-04-30T15:30:39.347Z,99711.13
2023-04-30T15:33:07.305Z,99722.03
2023-04-30T15:35:35.821Z,99722.97
2023-04-30T15:38:03.753Z,99725.59
2023-04-30T15:40:31.626Z,99717.06
2023-04-30T15:43:00.904Z,99717.91
2023-04-30T15:45:29.438Z,99713.63
2023-04-30T15:47:57.464Z,99716.91
2023-04-30T15:50:25.422Z,99717.72
2023-04-30T15:52:53.352Z,99711.81
2023-04-30T15:55:21.226Z,99711.94
2023-04-30T15:57:49.180Z,99711.84
2023-04-30T16:00:18.891Z,99704.22
2023-04-30T16:02:46.942Z,99721.97
2023-04-30T16:05:14.891Z,99713.69
2023-04-30T16:07:44.035Z,99711.03
2023-04-30T16:10:13.276Z,99713.72
2023-04-30T16:12:41.263Z,99712.00
2023-04-30T16:15:10.777Z,99704.50
2023-04-30T16:17:40.047Z,99697.63
2023-04-30T16:20:09.280Z,99694.38
2023-04-30T16:22:37.993Z,99686.78
2023-04-30T16:25:07.650Z,99686.88
2023-04-30T16:27:37.534Z,99688.38
2023-04-30T16:30:07.415Z,99685.06
2023-04-30T16:32:35.341Z,99686.00
2023-04-30T16:35:06.018Z,99692.78
2023-04-30T16:37:34.027Z,99690.16
2023-04-30T16:40:01.988Z,99685.84
2023-04-30T16:42:30.129Z,99688.50
2023-04-30T16:44:58.118Z,99687.75
2023-04-30T16:47:26.240Z,99694.63
2023-04-30T16:49:55.494Z,99692.88
2023-04-30T16:52:25.045Z,99696.19
2023-04-30T16:54:52.882Z,99701.38
2023-04-30T16:57:21.146Z,99698.72
2023-04-30T16:59:49.009Z,99698.78
2023-04-30T17:02:16.921Z,99703.72
2023-04-30T17:04:44.866Z,99705.47
2023-04-30T17:07:13.693Z,99698.84
2023-04-30T17:09:42.908Z,99705.63
2023-04-30T17:12:11.246Z,99711.69
2023-04-30T17:14:39.115Z,99706.66
2023-04-30T17:17:07.711Z,99702.50
2023-04-30T17:19:35.617Z,99710.31
2023-04-30T17:22:04.108Z,99715.53
2023-04-30T17:24:31.990Z,99708.06
2023-04-30T17:27:01.173Z,99720.03
2023-04-30T17:29:29.019Z,99713.41
2023-04-30T17:31:57.130Z,99717.72
2023-04-30T17:34:25.082Z,99721.91
2023-04-30T17:36:52.902Z,99723.59
2023-04-30T17:39:20.774Z,99723.59
2023-04-30T17:41:48.623Z,99725.25
2023-04-30T17:44:18.102Z,99725.22
2023-04-30T17:46:46.302Z,99731.97
2023-04-30T17:49:14.157Z,99734.47
2023-04-30T17:51:42.097Z,99736.13
2023-04-30T17:54:10.084Z,99736.03
2023-04-30T17:56:38.784Z,99736.84
2023-04-30T17:59:07.515Z,99741.88
2023-04-30T18:01:37.415Z,99744.38
2023-04-30T18:04:09.046Z,99746.00
2023-04-30T18:06:37.133Z,99747.63
2023-04-30T18:09:04.990Z,99743.41
2023-04-30T18:11:33.736Z,99750.91
2023-04-30T18:14:02.082Z,99752.53
2023-04-30T18:16:30.063Z,99753.31
2023-04-30T18:18:59.382Z,99750.75
2023-04-30T18:21:27.441Z,99746.44
2023-04-30T18:23:55.348Z,99758.19
2023-04-30T18:26:24.150Z,99756.44
2023-04-30T18:28:52.788Z,99756.34
2023-04-30T18:31:20.888Z,99760.50
2023-04-30T18:33:48.879Z,99769.69
2023-04-30T18:36:18.375Z,99765.38
2023-04-30T18:38:46.715Z,99772.91
2023-04-30T18:41:14.678Z,99777.03
2023-04-30T18:43:43.214Z,99779.47
2023-04-30T18:46:11.115Z,99781.13
2023-04-30T18:48:39.057Z,99781.91
2023-04-30T18:51:06.962Z,99782.63
2023-04-30T18:53:37.014Z,99785.94
2023-04-30T18:56:05.726Z,99793.44
2023-04-30T18:58:33.683Z,99780.00
2023-04-30T19:01:01.690Z,99785.84
2023-04-30T19:03:30.440Z,99789.13
2023-04-30T19:05:58.682Z,99792.47
2023-04-30T19:08:26.698Z,99797.41
2023-04-30T19:10:56.797Z,99797.31
2023-04-30T19:13:24.854Z,99802.31
2023-04-30T19:15:53.704Z,99800.56
2023-04-30T19:18:24.565Z,99804.69
2023-04-30T19:20:57.940Z,99808.81
2023-04-30T19:23:25.772Z,99802.88
2023-04-30T19:25:53.684Z,99800.34
2023-04-30T19:28:22.944Z,99806.16
2023-04-30T19:30:54.287Z,99809.44
2023-04-30T19:33:22.468Z,99811.13
2023-04-30T19:35:50.629Z,99808.53
2023-04-30T19:38:18.842Z,99808.59
2023-04-30T19:40:47.647Z,99800.19
2023-04-30T19:43:15.680Z,99808.53
2023-04-30T19:45:51.771Z,99806.81
2023-04-30T19:48:22.126Z,99803.41
2023-04-30T19:50:51.464Z,99806.72
2023-04-30T19:53:19.657Z,99809.97
2023-04-30T19:55:47.801Z,99820.88
2023-04-30T19:58:15.831Z,99817.47
2023-04-30T20:00:45.970Z,99818.34
2023-04-30T20:03:16.931Z,99821.72
2023-04-30T20:05:46.139Z,99824.31
2023-04-30T20:08:13.982Z,99823.38
2023-04-30T20:10:42.746Z,99826.66
2023-04-30T20:13:11.262Z,99831.69
2023-04-30T20:15:39.113Z,99831.69
2023-04-30T20:18:07.052Z,99831.00
2023-04-30T20:20:36.394Z,99831.97
2023-04-30T20:23:13.975Z,99827.03
2023-04-30T20:25:45.248Z,99830.41
2023-04-30T20:28:13.914Z,99829.59
2023-04-30T20:30:43.102Z,99830.47
2023-04-30T20:33:11.488Z,99829.53
2023-04-30T20:35:41.760Z,99828.72
2023-04-30T20:38:09.776Z,99840.53
2023-04-30T20:40:40.136Z,99832.16
2023-04-30T20:43:08.429Z,99838.72
2023-04-30T20:45:36.715Z,99829.47
2023-04-30T20:48:05.659Z,99840.34
2023-04-30T20:50:33.722Z,99851.13
2023-04-30T20:53:03.155Z,99847.75
2023-04-30T20:55:31.077Z,99856.97
2023-04-30T20:57:59.024Z,99851.84
2023-04-30T21:00:27.763Z,99858.47
2023-04-30T21:02:55.818Z,99855.66
2023-04-30T21:05:23.911Z,99860.53
2023-04-30T21:07:52.283Z,99870.44
2023-04-30T21:10:21.689Z,99868.78
2023-04-30T21:12:49.619Z,99869.59
2023-04-30T21:15:17.711Z,99867.72
2023-04-30T21:17:45.665Z,99866.09
2023-04-30T21:20:14.163Z,99871.28
2023-04-30T21:22:42.285Z,99866.44
2023-04-30T21:25:12.210Z,99874.00
2023-04-30T21:27:41.428Z,99871.34
2023-04-30T21:30:10.266Z,99870.34
2023-04-30T21:32:38.253Z,99862.53
2023-04-30T21:35:07.025Z,99874.41
2023-04-30T21:37:34.965Z,99877.66
2023-04-30T21:40:03.720Z,99859.06
2023-04-30T21:42:31.665Z,99877.66
2023-04-30T21:45:00.920Z,99879.19
2023-04-30T21:47:28.963Z,99884.28
2023-04-30T21:49:57.216Z,99891.06
2023-04-30T21:52:25.270Z,99891.97
2023-04-30T21:54:53.210Z,99889.53
2023-04-30T21:57:21.508Z,99894.56
2023-04-30T21:59:49.309Z,99888.59
2023-04-30T22:02:23.829Z,99896.06
2023-04-30T22:04:53.387Z,99903.56
2023-04-30T22:07:21.496Z,99909.41
2023-04-30T22:09:49.322Z,99900.94
2023-04-30T22:12:19.241Z,99902.56
2023-04-30T22:14:49.769Z,99902.38
2023-04-30T22:17:18.935Z,99903.81
2023-04-30T22:19:46.813Z,99901.97
2023-04-30T22:22:14.691Z,99902.69
2023-04-30T22:24:42.546Z,99908.63
2023-04-30T22:27:10.650Z,99903.66
2023-04-30T22:29:38.594Z,99907.84
2023-04-30T22:32:07.397Z,99919.53
2023-04-30T22:34:40.117Z,99911.91
2023-04-30T22:37:10.423Z,99917.78
2023-04-30T22:39:38.711Z,99912.63
2023-04-30T22:42:07.098Z,99918.53
2023-04-30T22:44:35.001Z,99922.78
2023-04-30T22:47:03.840Z,99927.81
2023-04-30T22:49:32.439Z,99925.25
2023-04-30T22:52:01.856Z,99923.56
2023-04-30T22:54:30.043Z,99924.38
2023-04-30T22:56:58.500Z,99926.03
2023-04-30T22:59:26.469Z,99913.38
2023-04-30T23:01:54.560Z,99918.53
2023-04-30T23:04:22.543Z,99911.16
2023-04-30T23:06:50.573Z,99909.56
2023-04-30T23:09:19.871Z,99915.47
2023-04-30T23:11:48.266Z,99912.00
2023-04-30T23:14:16.309Z,99910.28
2023-04-30T23:16:44.303Z,99897.63
2023-04-30T23:19:12.322Z,99911.97
2023-04-30T23:21:40.258Z,99911.16
2023-04-30T23:24:08.105Z,99910.31
2023-04-30T23:26:37.337Z,99917.78
2023-04-30T23:29:05.222Z,99915.16
2023-04-30T23:31:33.180Z,99916.91
2023-04-30T23:34:01.143Z,99918.63
2023-04-30T23:36:28.976Z,99914.41
2023-04-30T23:38:57.084Z,99911.91
2023-04-30T23:41:26.012Z,99916.91
2023-04-30T23:43:55.373Z,99918.47
2023-04-30T23:46:23.424Z,99919.97
2023-04-30T23:48:51.935Z,99925.72
2023-04-30T23:51:21.496Z,99915.50
2023-04-30T23:53:49.567Z,99924.47
2023-04-30T23:56:17.397Z,99919.28
2023-04-30T23:58:45.256Z,99912.56
